sensor_id;sensor_type;location;lat;lon;timestamp;P1;durP1;ratioP1;P2;durP2;ratioP2
7173;SDS011;3628;48.654;8.932;2023-03-07T00:01:29;8.83;;;6.33;;
7173;SDS011;3628;48.654;8.932;2023-03-07T00:03:56;10.53;;;5.57;;
7173;SDS011;3628;48.654;8.932;2023-03-07T00:06:22;10.57;;;6.50;;
7173;SDS011;3628;48.654;8.932;2023-03-07T00:08:49;12.83;;;6.30;;
7173;SDS011;3628;48.654;8.932;2023-03-07T00:11:16;10.20;;;5.87;;
7173;SDS011;3628;48.654;8.932;2023-03-07T00:13:42;10.17;;;6.03;;
7173;SDS011;3628;48.654;8.932;2023-03-07T00:16:09;7.43;;;5.13;;
7173;SDS011;3628;48.654;8.932;2023-03-07T00:18:37;8.03;;;5.13;;
7173;SDS011;3628;48.654;8.932;2023-03-07T00:21:04;8.30;;;5.20;;
7173;SDS011;3628;48.654;8.932;2023-03-07T00:23:31;8.03;;;5.53;;
7173;SDS011;3628;48.654;8.932;2023-03-07T00:26:05;8.77;;;5.13;;
7173;SDS011;3628;48.654;8.932;2023-03-07T00:28:31;8.07;;;5.50;;
7173;SDS011;3628;48.654;8.932;2023-03-07T00:31:01;7.97;;;4.97;;
7173;SDS011;3628;48.654;8.932;2023-03-07T00:33:28;9.27;;;5.83;;
7173;SDS011;3628;48.654;8.932;2023-03-07T00:35:55;9.87;;;6.17;;
7173;SDS011;3628;48.654;8.932;2023-03-07T00:38:22;11.17;;;6.50;;
7173;SDS011;3628;48.654;8.932;2023-03-07T00:40:54;9.50;;;6.03;;
7173;SDS011;3628;48.654;8.932;2023-03-07T00:43:28;8.93;;;5.50;;
7173;SDS011;3628;48.654;8.932;2023-03-07T00:45:54;9.30;;;5.80;;
7173;SDS011;3628;48.654;8.932;2023-03-07T00:48:20;8.27;;;5.10;;
7173;SDS011;3628;48.654;8.932;2023-03-07T00:50:46;7.43;;;5.10;;
7173;SDS011;3628;48.654;8.932;2023-03-07T00:53:12;7.87;;;5.40;;
7173;SDS011;3628;48.654;8.932;2023-03-07T00:55:38;7.77;;;5.43;;
7173;SDS011;3628;48.654;8.932;2023-03-07T00:58:03;7.70;;;5.10;;
7173;SDS011;3628;48.654;8.932;2023-03-07T01:00:29;8.07;;;5.50;;
7173;SDS011;3628;48.654;8.932;2023-03-07T01:02:54;10.50;;;5.97;;
7173;SDS011;3628;48.654;8.932;2023-03-07T01:05:22;10.40;;;5.97;;
7173;SDS011;3628;48.654;8.932;2023-03-07T01:07:47;10.13;;;6.00;;
7173;SDS011;3628;48.654;8.932;2023-03-07T01:10:13;10.83;;;6.20;;
7173;SDS011;3628;48.654;8.932;2023-03-07T01:12:39;9.80;;;6.37;;
7173;SDS011;3628;48.654;8.932;2023-03-07T01:15:07;10.63;;;6.47;;
7173;SDS011;3628;48.654;8.932;2023-03-07T01:17:33;11.07;;;6.67;;
7173;SDS011;3628;48.654;8.932;2023-03-07T01:19:59;8.67;;;5.43;;
7173;SDS011;3628;48.654;8.932;2023-03-07T01:22:25;7.93;;;5.27;;
7173;SDS011;3628;48.654;8.932;2023-03-07T01:24:50;8.27;;;5.37;;
7173;SDS011;3628;48.654;8.932;2023-03-07T01:27:16;9.03;;;5.60;;
7173;SDS011;3628;48.654;8.932;2023-03-07T01:29:41;9.87;;;5.53;;
7173;SDS011;3628;48.654;8.932;2023-03-07T01:32:07;8.20;;;5.20;;
7173;SDS011;3628;48.654;8.932;2023-03-07T01:34:32;8.67;;;5.13;;
7173;SDS011;3628;48.654;8.932;2023-03-07T01:36:58;7.50;;;4.90;;
7173;SDS011;3628;48.654;8.932;2023-03-07T01:39:23;7.50;;;5.03;;
7173;SDS011;3628;48.654;8.932;2023-03-07T01:41:49;7.10;;;4.90;;
7173;SDS011;3628;48.654;8.932;2023-03-07T01:44:16;8.53;;;5.63;;
7173;SDS011;3628;48.654;8.932;2023-03-07T01:46:45;5.77;;;4.77;;
7173;SDS011;3628;48.654;8.932;2023-03-07T01:49:13;10.93;;;5.03;;
7173;SDS011;3628;48.654;8.932;2023-03-07T01:51:46;6.63;;;4.83;;
7173;SDS011;3628;48.654;8.932;2023-03-07T01:54:15;9.77;;;5.57;;
7173;SDS011;3628;48.654;8.932;2023-03-07T01:56:43;7.80;;;5.40;;
7173;SDS011;3628;48.654;8.932;2023-03-07T01:59:09;8.17;;;5.33;;
7173;SDS011;3628;48.654;8.932;2023-03-07T02:01:36;9.03;;;5.33;;
7173;SDS011;3628;48.654;8.932;2023-03-07T02:04:05;8.57;;;5.40;;
7173;SDS011;3628;48.654;8.932;2023-03-07T02:06:36;9.90;;;5.20;;
7173;SDS011;3628;48.654;8.932;2023-03-07T02:09:02;7.67;;;5.17;;
7173;SDS011;3628;48.654;8.932;2023-03-07T02:11:36;7.53;;;5.13;;
7173;SDS011;3628;48.654;8.932;2023-03-07T02:14:03;6.40;;;4.93;;
7173;SDS011;3628;48.654;8.932;2023-03-07T02:16:28;8.33;;;5.00;;
7173;SDS011;3628;48.654;8.932;2023-03-07T02:18:55;7.40;;;4.87;;
7173;SDS011;3628;48.654;8.932;2023-03-07T02:21:25;8.53;;;5.47;;
7173;SDS011;3628;48.654;8.932;2023-03-07T02:29:15;8.70;;;5.20;;
7173;SDS011;3628;48.654;8.932;2023-03-07T02:31:41;6.27;;;4.73;;
7173;SDS011;3628;48.654;8.932;2023-03-07T02:37:06;11.20;;;5.60;;
7173;SDS011;3628;48.654;8.932;2023-03-07T02:39:42;8.30;;;5.17;;
7173;SDS011;3628;48.654;8.932;2023-03-07T02:42:10;8.10;;;5.40;;
7173;SDS011;3628;48.654;8.932;2023-03-07T02:44:56;9.70;;;5.23;;
7173;SDS011;3628;48.654;8.932;2023-03-07T02:47:23;9.73;;;6.20;;
7173;SDS011;3628;48.654;8.932;2023-03-07T02:49:49;8.57;;;5.30;;
7173;SDS011;3628;48.654;8.932;2023-03-07T02:52:15;10.10;;;5.67;;
7173;SDS011;3628;48.654;8.932;2023-03-07T02:54:41;7.63;;;5.17;;
7173;SDS011;3628;48.654;8.932;2023-03-07T02:57:06;10.30;;;5.80;;
7173;SDS011;3628;48.654;8.932;2023-03-07T02:59:34;7.67;;;5.20;;
7173;SDS011;3628;48.654;8.932;2023-03-07T03:02:00;8.83;;;5.63;;
7173;SDS011;3628;48.654;8.932;2023-03-07T03:04:25;9.27;;;5.73;;
7173;SDS011;3628;48.654;8.932;2023-03-07T03:06:51;10.73;;;6.43;;
7173;SDS011;3628;48.654;8.932;2023-03-07T03:09:16;9.70;;;6.30;;
7173;SDS011;3628;48.654;8.932;2023-03-07T03:11:42;10.53;;;6.20;;
7173;SDS011;3628;48.654;8.932;2023-03-07T03:14:07;7.07;;;5.07;;
7173;SDS011;3628;48.654;8.932;2023-03-07T03:16:33;8.43;;;5.67;;
7173;SDS011;3628;48.654;8.932;2023-03-07T03:18:58;7.80;;;4.73;;
7173;SDS011;3628;48.654;8.932;2023-03-07T03:21:24;7.30;;;4.93;;
7173;SDS011;3628;48.654;8.932;2023-03-07T03:23:50;7.57;;;5.20;;
7173;SDS011;3628;48.654;8.932;2023-03-07T03:26:15;9.00;;;5.90;;
7173;SDS011;3628;48.654;8.932;2023-03-07T03:28:41;7.73;;;5.53;;
7173;SDS011;3628;48.654;8.932;2023-03-07T03:31:08;7.97;;;5.37;;
7173;SDS011;3628;48.654;8.932;2023-03-07T03:33:35;7.77;;;5.43;;
7173;SDS011;3628;48.654;8.932;2023-03-07T03:36:05;8.20;;;5.70;;
7173;SDS011;3628;48.654;8.932;2023-03-07T03:38:38;9.13;;;5.80;;
7173;SDS011;3628;48.654;8.932;2023-03-07T03:41:04;7.60;;;5.40;;
7173;SDS011;3628;48.654;8.932;2023-03-07T03:43:31;7.80;;;5.37;;
7173;SDS011;3628;48.654;8.932;2023-03-07T03:45:57;8.60;;;4.90;;
7173;SDS011;3628;48.654;8.932;2023-03-07T03:48:23;8.03;;;5.43;;
7173;SDS011;3628;48.654;8.932;2023-03-07T03:50:49;8.20;;;6.13;;
7173;SDS011;3628;48.654;8.932;2023-03-07T03:53:14;11.43;;;5.93;;
7173;SDS011;3628;48.654;8.932;2023-03-07T03:55:40;7.30;;;5.53;;
7173;SDS011;3628;48.654;8.932;2023-03-07T03:58:05;7.17;;;5.23;;
7173;SDS011;3628;48.654;8.932;2023-03-07T04:00:31;8.70;;;5.87;;
7173;SDS011;3628;48.654;8.932;2023-03-07T04:02:56;7.63;;;5.27;;
7173;SDS011;3628;48.654;8.932;2023-03-07T04:05:22;9.73;;;6.10;;
7173;SDS011;3628;48.654;8.932;2023-03-07T04:07:47;9.37;;;5.80;;
7173;SDS011;3628;48.654;8.932;2023-03-07T04:10:13;10.33;;;5.80;;
7173;SDS011;3628;48.654;8.932;2023-03-07T04:12:39;9.33;;;5.90;;
7173;SDS011;3628;48.654;8.932;2023-03-07T04:15:05;9.80;;;6.03;;
7173;SDS011;3628;48.654;8.932;2023-03-07T04:17:32;10.07;;;6.30;;
7173;SDS011;3628;48.654;8.932;2023-03-07T04:19:57;8.33;;;5.70;;
7173;SDS011;3628;48.654;8.932;2023-03-07T04:22:23;9.07;;;5.97;;
7173;SDS011;3628;48.654;8.932;2023-03-07T04:24:49;8.13;;;5.20;;
7173;SDS011;3628;48.654;8.932;2023-03-07T04:27:14;9.20;;;5.87;;
7173;SDS011;3628;48.654;8.932;2023-03-07T04:29:40;10.43;;;5.73;;
7173;SDS011;3628;48.654;8.932;2023-03-07T04:32:06;9.73;;;6.00;;
7173;SDS011;3628;48.654;8.932;2023-03-07T04:34:31;8.90;;;5.57;;
7173;SDS011;3628;48.654;8.932;2023-03-07T04:36:57;8.43;;;5.53;;
7173;SDS011;3628;48.654;8.932;2023-03-07T04:39:22;9.57;;;5.80;;
7173;SDS011;3628;48.654;8.932;2023-03-07T04:41:48;8.33;;;5.43;;
7173;SDS011;3628;48.654;8.932;2023-03-07T04:44:13;8.70;;;5.70;;
7173;SDS011;3628;48.654;8.932;2023-03-07T04:46:40;8.47;;;6.07;;
7173;SDS011;3628;48.654;8.932;2023-03-07T04:49:05;8.43;;;5.03;;
7173;SDS011;3628;48.654;8.932;2023-03-07T04:51:31;9.60;;;5.57;;
7173;SDS011;3628;48.654;8.932;2023-03-07T04:53:56;8.97;;;5.30;;
7173;SDS011;3628;48.654;8.932;2023-03-07T04:56:22;10.53;;;5.87;;
7173;SDS011;3628;48.654;8.932;2023-03-07T04:58:48;10.07;;;5.57;;
7173;SDS011;3628;48.654;8.932;2023-03-07T05:01:13;8.67;;;5.37;;
7173;SDS011;3628;48.654;8.932;2023-03-07T05:03:39;10.80;;;6.27;;
7173;SDS011;3628;48.654;8.932;2023-03-07T05:06:06;9.60;;;5.63;;
7173;SDS011;3628;48.654;8.932;2023-03-07T05:08:34;9.50;;;6.30;;
7173;SDS011;3628;48.654;8.932;2023-03-07T05:11:00;9.40;;;5.57;;
7173;SDS011;3628;48.654;8.932;2023-03-07T05:13:26;8.70;;;5.70;;
7173;SDS011;3628;48.654;8.932;2023-03-07T05:15:52;8.23;;;5.30;;
7173;SDS011;3628;48.654;8.932;2023-03-07T05:18:19;7.43;;;5.20;;
7173;SDS011;3628;48.654;8.932;2023-03-07T05:20:45;9.27;;;5.77;;
7173;SDS011;3628;48.654;8.932;2023-03-07T05:23:10;9.10;;;5.47;;
7173;SDS011;3628;48.654;8.932;2023-03-07T05:25:36;8.40;;;5.50;;
7173;SDS011;3628;48.654;8.932;2023-03-07T05:28:01;7.80;;;5.27;;
7173;SDS011;3628;48.654;8.932;2023-03-07T05:30:27;8.57;;;5.30;;
7173;SDS011;3628;48.654;8.932;2023-03-07T05:32:53;7.67;;;5.03;;
7173;SDS011;3628;48.654;8.932;2023-03-07T05:35:18;9.90;;;6.03;;
7173;SDS011;3628;48.654;8.932;2023-03-07T05:37:48;8.00;;;4.97;;
7173;SDS011;3628;48.654;8.932;2023-03-07T05:40:14;7.70;;;5.17;;
7173;SDS011;3628;48.654;8.932;2023-03-07T05:42:39;8.43;;;5.77;;
7173;SDS011;3628;48.654;8.932;2023-03-07T05:45:05;7.17;;;5.03;;
7173;SDS011;3628;48.654;8.932;2023-03-07T05:47:31;9.47;;;5.57;;
7173;SDS011;3628;48.654;8.932;2023-03-07T05:49:57;9.47;;;5.53;;
7173;SDS011;3628;48.654;8.932;2023-03-07T05:52:22;7.80;;;4.87;;
7173;SDS011;3628;48.654;8.932;2023-03-07T05:54:48;8.77;;;5.23;;
7173;SDS011;3628;48.654;8.932;2023-03-07T05:57:13;8.23;;;5.03;;
7173;SDS011;3628;48.654;8.932;2023-03-07T05:59:39;8.43;;;4.90;;
7173;SDS011;3628;48.654;8.932;2023-03-07T06:02:04;8.97;;;5.30;;
7173;SDS011;3628;48.654;8.932;2023-03-07T06:04:30;7.40;;;4.90;;
7173;SDS011;3628;48.654;8.932;2023-03-07T06:06:55;8.10;;;5.00;;
7173;SDS011;3628;48.654;8.932;2023-03-07T06:09:21;9.33;;;4.90;;
7173;SDS011;3628;48.654;8.932;2023-03-07T06:11:47;9.80;;;5.20;;
7173;SDS011;3628;48.654;8.932;2023-03-07T06:14:13;12.53;;;5.30;;
7173;SDS011;3628;48.654;8.932;2023-03-07T06:16:39;8.27;;;5.40;;
7173;SDS011;3628;48.654;8.932;2023-03-07T06:19:04;7.93;;;5.53;;
7173;SDS011;3628;48.654;8.932;2023-03-07T06:21:30;8.27;;;5.13;;
7173;SDS011;3628;48.654;8.932;2023-03-07T06:23:55;8.10;;;4.93;;
7173;SDS011;3628;48.654;8.932;2023-03-07T06:26:21;9.00;;;5.00;;
7173;SDS011;3628;48.654;8.932;2023-03-07T06:28:46;8.90;;;5.20;;
7173;SDS011;3628;48.654;8.932;2023-03-07T06:31:13;7.23;;;4.47;;
7173;SDS011;3628;48.654;8.932;2023-03-07T06:33:41;7.50;;;5.10;;
7173;SDS011;3628;48.654;8.932;2023-03-07T06:36:07;6.73;;;4.77;;
7173;SDS011;3628;48.654;8.932;2023-03-07T06:38:34;7.47;;;4.67;;
7173;SDS011;3628;48.654;8.932;2023-03-07T06:41:00;6.90;;;4.73;;
7173;SDS011;3628;48.654;8.932;2023-03-07T06:43:25;7.13;;;4.87;;
7173;SDS011;3628;48.654;8.932;2023-03-07T06:45:52;8.53;;;5.07;;
7173;SDS011;3628;48.654;8.932;2023-03-07T06:48:18;6.60;;;4.17;;
7173;SDS011;3628;48.654;8.932;2023-03-07T06:50:43;8.10;;;5.07;;
7173;SDS011;3628;48.654;8.932;2023-03-07T06:53:09;6.27;;;4.67;;
7173;SDS011;3628;48.654;8.932;2023-03-07T06:55:35;7.40;;;4.70;;
7173;SDS011;3628;48.654;8.932;2023-03-07T06:58:01;7.60;;;4.67;;
7173;SDS011;3628;48.654;8.932;2023-03-07T07:00:26;9.07;;;5.20;;
7173;SDS011;3628;48.654;8.932;2023-03-07T07:02:52;6.83;;;4.77;;
7173;SDS011;3628;48.654;8.932;2023-03-07T07:05:18;8.00;;;5.27;;
7173;SDS011;3628;48.654;8.932;2023-03-07T07:07:43;6.70;;;4.67;;
7173;SDS011;3628;48.654;8.932;2023-03-07T07:10:09;7.53;;;5.23;;
7173;SDS011;3628;48.654;8.932;2023-03-07T07:12:35;8.03;;;4.73;;
7173;SDS011;3628;48.654;8.932;2023-03-07T07:15:00;7.80;;;4.97;;
7173;SDS011;3628;48.654;8.932;2023-03-07T07:17:27;7.57;;;5.00;;
7173;SDS011;3628;48.654;8.932;2023-03-07T07:19:53;7.50;;;4.83;;
7173;SDS011;3628;48.654;8.932;2023-03-07T07:22:19;7.83;;;4.73;;
7173;SDS011;3628;48.654;8.932;2023-03-07T07:24:44;8.93;;;5.13;;
7173;SDS011;3628;48.654;8.932;2023-03-07T07:27:10;7.33;;;5.03;;
7173;SDS011;3628;48.654;8.932;2023-03-07T07:29:35;8.30;;;5.03;;
7173;SDS011;3628;48.654;8.932;2023-03-07T07:32:01;7.00;;;4.73;;
7173;SDS011;3628;48.654;8.932;2023-03-07T07:34:26;7.43;;;5.10;;
7173;SDS011;3628;48.654;8.932;2023-03-07T07:36:52;9.30;;;5.20;;
7173;SDS011;3628;48.654;8.932;2023-03-07T07:39:18;7.13;;;4.90;;
7173;SDS011;3628;48.654;8.932;2023-03-07T07:41:44;7.90;;;4.83;;
7173;SDS011;3628;48.654;8.932;2023-03-07T07:44:09;6.53;;;4.43;;
7173;SDS011;3628;48.654;8.932;2023-03-07T07:46:35;8.23;;;4.90;;
7173;SDS011;3628;48.654;8.932;2023-03-07T07:49:01;7.60;;;4.73;;
7173;SDS011;3628;48.654;8.932;2023-03-07T07:51:27;8.10;;;5.00;;
7173;SDS011;3628;48.654;8.932;2023-03-07T07:53:52;6.87;;;4.87;;
7173;SDS011;3628;48.654;8.932;2023-03-07T07:56:18;5.67;;;4.47;;
7173;SDS011;3628;48.654;8.932;2023-03-07T07:58:43;10.60;;;5.37;;
7173;SDS011;3628;48.654;8.932;2023-03-07T08:01:19;7.03;;;5.13;;
7173;SDS011;3628;48.654;8.932;2023-03-07T08:03:46;9.60;;;5.97;;
7173;SDS011;3628;48.654;8.932;2023-03-07T08:06:16;7.17;;;5.33;;
7173;SDS011;3628;48.654;8.932;2023-03-07T08:08:42;7.53;;;4.90;;
7173;SDS011;3628;48.654;8.932;2023-03-07T08:11:07;7.83;;;4.40;;
7173;SDS011;3628;48.654;8.932;2023-03-07T08:13:33;9.83;;;4.93;;
7173;SDS011;3628;48.654;8.932;2023-03-07T08:15:58;6.30;;;4.47;;
7173;SDS011;3628;48.654;8.932;2023-03-07T08:18:24;9.50;;;5.50;;
7173;SDS011;3628;48.654;8.932;2023-03-07T08:20:49;7.57;;;5.17;;
7173;SDS011;3628;48.654;8.932;2023-03-07T08:23:15;8.93;;;5.20;;
7173;SDS011;3628;48.654;8.932;2023-03-07T08:25:40;6.23;;;4.50;;
7173;SDS011;3628;48.654;8.932;2023-03-07T08:28:06;7.97;;;5.07;;
7173;SDS011;3628;48.654;8.932;2023-03-07T08:30:32;6.40;;;4.70;;
7173;SDS011;3628;48.654;8.932;2023-03-07T08:32:59;6.50;;;4.90;;
7173;SDS011;3628;48.654;8.932;2023-03-07T08:35:25;6.03;;;4.50;;
7173;SDS011;3628;48.654;8.932;2023-03-07T08:37:52;7.23;;;4.30;;
7173;SDS011;3628;48.654;8.932;2023-03-07T08:40:20;7.33;;;4.90;;
7173;SDS011;3628;48.654;8.932;2023-03-07T08:42:45;5.87;;;4.13;;
7173;SDS011;3628;48.654;8.932;2023-03-07T08:45:11;6.93;;;4.57;;
7173;SDS011;3628;48.654;8.932;2023-03-07T08:47:37;8.17;;;4.37;;
7173;SDS011;3628;48.654;8.932;2023-03-07T08:50:03;6.37;;;4.63;;
7173;SDS011;3628;48.654;8.932;2023-03-07T08:52:29;8.57;;;4.33;;
7173;SDS011;3628;48.654;8.932;2023-03-07T08:54:55;5.83;;;4.23;;
7173;SDS011;3628;48.654;8.932;2023-03-07T08:57:20;6.90;;;4.50;;
7173;SDS011;3628;48.654;8.932;2023-03-07T08:59:46;7.30;;;4.07;;
7173;SDS011;3628;48.654;8.932;2023-03-07T09:02:11;5.17;;;4.03;;
7173;SDS011;3628;48.654;8.932;2023-03-07T09:04:37;6.03;;;3.93;;
7173;SDS011;3628;48.654;8.932;2023-03-07T09:07:03;7.93;;;4.40;;
7173;SDS011;3628;48.654;8.932;2023-03-07T09:09:29;4.63;;;4.00;;
7173;SDS011;3628;48.654;8.932;2023-03-07T09:11:55;6.03;;;4.27;;
7173;SDS011;3628;48.654;8.932;2023-03-07T09:14:20;16.03;;;4.40;;
7173;SDS011;3628;48.654;8.932;2023-03-07T09:16:46;7.63;;;4.20;;
7173;SDS011;3628;48.654;8.932;2023-03-07T09:19:11;6.03;;;4.03;;
7173;SDS011;3628;48.654;8.932;2023-03-07T09:21:37;4.77;;;3.77;;
7173;SDS011;3628;48.654;8.932;2023-03-07T09:24:03;6.33;;;4.10;;
7173;SDS011;3628;48.654;8.932;2023-03-07T09:26:29;7.23;;;4.00;;
7173;SDS011;3628;48.654;8.932;2023-03-07T09:28:55;7.07;;;4.00;;
7173;SDS011;3628;48.654;8.932;2023-03-07T09:31:20;6.13;;;4.07;;
7173;SDS011;3628;48.654;8.932;2023-03-07T09:33:46;6.63;;;4.17;;
7173;SDS011;3628;48.654;8.932;2023-03-07T09:36:12;5.40;;;3.83;;
7173;SDS011;3628;48.654;8.932;2023-03-07T09:38:38;5.43;;;4.20;;
7173;SDS011;3628;48.654;8.932;2023-03-07T09:44:09;5.27;;;3.70;;
7173;SDS011;3628;48.654;8.932;2023-03-07T09:49:48;4.57;;;3.30;;
7173;SDS011;3628;48.654;8.932;2023-03-07T09:52:16;5.87;;;3.90;;
7173;SDS011;3628;48.654;8.932;2023-03-07T09:54:55;6.87;;;4.40;;
7173;SDS011;3628;48.654;8.932;2023-03-07T09:57:27;6.20;;;3.43;;
7173;SDS011;3628;48.654;8.932;2023-03-07T10:00:18;5.60;;;3.43;;
7173;SDS011;3628;48.654;8.932;2023-03-07T10:05:49;4.93;;;3.70;;
7173;SDS011;3628;48.654;8.932;2023-03-07T10:08:20;5.80;;;3.97;;
7173;SDS011;3628;48.654;8.932;2023-03-07T10:10:52;7.27;;;4.17;;
7173;SDS011;3628;48.654;8.932;2023-03-07T10:16:02;5.77;;;4.03;;
7173;SDS011;3628;48.654;8.932;2023-03-07T10:18:49;6.73;;;4.30;;
7173;SDS011;3628;48.654;8.932;2023-03-07T10:24:16;5.90;;;3.87;;
7173;SDS011;3628;48.654;8.932;2023-03-07T10:29:49;5.13;;;4.10;;
7173;SDS011;3628;48.654;8.932;2023-03-07T10:32:21;8.23;;;4.70;;
7173;SDS011;3628;48.654;8.932;2023-03-07T10:35:17;6.30;;;4.10;;
7173;SDS011;3628;48.654;8.932;2023-03-07T10:43:28;8.13;;;4.00;;
7173;SDS011;3628;48.654;8.932;2023-03-07T10:45:57;5.80;;;3.80;;
7173;SDS011;3628;48.654;8.932;2023-03-07T10:48:41;5.77;;;4.17;;
7173;SDS011;3628;48.654;8.932;2023-03-07T10:54:31;7.13;;;4.03;;
7173;SDS011;3628;48.654;8.932;2023-03-07T10:57:02;6.60;;;4.27;;
7173;SDS011;3628;48.654;8.932;2023-03-07T10:59:35;8.63;;;4.73;;
7173;SDS011;3628;48.654;8.932;2023-03-07T11:02:02;6.40;;;3.90;;
7173;SDS011;3628;48.654;8.932;2023-03-07T11:04:48;7.90;;;4.50;;
7173;SDS011;3628;48.654;8.932;2023-03-07T11:09:59;8.33;;;4.37;;
7173;SDS011;3628;48.654;8.932;2023-03-07T11:12:27;5.80;;;3.83;;
7173;SDS011;3628;48.654;8.932;2023-03-07T11:15:40;8.13;;;4.27;;
7173;SDS011;3628;48.654;8.932;2023-03-07T11:17:46;7.30;;;4.33;;
7173;SDS011;3628;48.654;8.932;2023-03-07T11:23:13;7.90;;;4.23;;
7173;SDS011;3628;48.654;8.932;2023-03-07T11:25:55;5.17;;;3.97;;
7173;SDS011;3628;48.654;8.932;2023-03-07T11:36:35;5.70;;;4.30;;
7173;SDS011;3628;48.654;8.932;2023-03-07T11:39:15;4.63;;;3.80;;
7173;SDS011;3628;48.654;8.932;2023-03-07T11:41:45;7.40;;;4.67;;
7173;SDS011;3628;48.654;8.932;2023-03-07T11:44:17;9.00;;;4.90;;
7173;SDS011;3628;48.654;8.932;2023-03-07T11:49:25;8.73;;;4.80;;
7173;SDS011;3628;48.654;8.932;2023-03-07T11:52:07;6.83;;;4.67;;
7173;SDS011;3628;48.654;8.932;2023-03-07T11:54:46;7.57;;;4.47;;
7173;SDS011;3628;48.654;8.932;2023-03-07T12:00:18;7.23;;;4.00;;
7173;SDS011;3628;48.654;8.932;2023-03-07T12:03:20;6.20;;;4.40;;
7173;SDS011;3628;48.654;8.932;2023-03-07T12:14:44;6.50;;;4.33;;
7173;SDS011;3628;48.654;8.932;2023-03-07T12:31:09;9.43;;;6.20;;
7173;SDS011;3628;48.654;8.932;2023-03-07T12:34:08;15.53;;;9.10;;
7173;SDS011;3628;48.654;8.932;2023-03-07T12:39:20;18.10;;;10.37;;
7173;SDS011;3628;48.654;8.932;2023-03-07T12:47:49;7.73;;;4.00;;
7173;SDS011;3628;48.654;8.932;2023-03-07T12:50:07;3.73;;;2.60;;
7173;SDS011;3628;48.654;8.932;2023-03-07T12:52:38;3.97;;;2.93;;
7173;SDS011;3628;48.654;8.932;2023-03-07T13:00:53;10.47;;;6.43;;
7173;SDS011;3628;48.654;8.932;2023-03-07T13:03:32;16.83;;;9.07;;
7173;SDS011;3628;48.654;8.932;2023-03-07T13:06:05;8.77;;;5.33;;
7173;SDS011;3628;48.654;8.932;2023-03-07T13:08:33;10.07;;;5.73;;
7173;SDS011;3628;48.654;8.932;2023-03-07T13:10:58;21.33;;;11.90;;
7173;SDS011;3628;48.654;8.932;2023-03-07T13:16:10;5.77;;;3.87;;
7173;SDS011;3628;48.654;8.932;2023-03-07T13:18:37;20.10;;;10.77;;
7173;SDS011;3628;48.654;8.932;2023-03-07T13:21:07;10.63;;;6.83;;
7173;SDS011;3628;48.654;8.932;2023-03-07T13:23:38;5.77;;;3.40;;
7173;SDS011;3628;48.654;8.932;2023-03-07T13:26:04;7.77;;;4.40;;
7173;SDS011;3628;48.654;8.932;2023-03-07T13:28:36;7.37;;;3.80;;
7173;SDS011;3628;48.654;8.932;2023-03-07T13:33:41;4.17;;;3.10;;
7173;SDS011;3628;48.654;8.932;2023-03-07T13:39:03;4.40;;;3.23;;
7173;SDS011;3628;48.654;8.932;2023-03-07T13:41:48;3.63;;;2.63;;
7173;SDS011;3628;48.654;8.932;2023-03-07T13:44:25;3.67;;;2.90;;
7173;SDS011;3628;48.654;8.932;2023-03-07T13:46:51;4.03;;;3.13;;
7173;SDS011;3628;48.654;8.932;2023-03-07T13:49:32;4.10;;;3.00;;
7173;SDS011;3628;48.654;8.932;2023-03-07T13:52:15;3.27;;;2.80;;
7173;SDS011;3628;48.654;8.932;2023-03-07T13:54:46;3.57;;;2.80;;
7173;SDS011;3628;48.654;8.932;2023-03-07T13:57:16;4.13;;;3.03;;
7173;SDS011;3628;48.654;8.932;2023-03-07T13:59:48;4.77;;;3.13;;
7173;SDS011;3628;48.654;8.932;2023-03-07T14:02:15;5.43;;;3.10;;
7173;SDS011;3628;48.654;8.932;2023-03-07T14:04:43;3.80;;;3.03;;
7173;SDS011;3628;48.654;8.932;2023-03-07T14:07:25;3.37;;;2.37;;
7173;SDS011;3628;48.654;8.932;2023-03-07T14:10:37;5.00;;;2.73;;
7173;SDS011;3628;48.654;8.932;2023-03-07T14:26:36;3.30;;;2.40;;
7173;SDS011;3628;48.654;8.932;2023-03-07T14:31:40;2.43;;;2.00;;
7173;SDS011;3628;48.654;8.932;2023-03-07T14:36:42;2.23;;;1.87;;
7173;SDS011;3628;48.654;8.932;2023-03-07T14:39:11;4.20;;;2.03;;
7173;SDS011;3628;48.654;8.932;2023-03-07T14:50:05;3.77;;;2.60;;
7173;SDS011;3628;48.654;8.932;2023-03-07T14:52:36;2.47;;;2.00;;
7173;SDS011;3628;48.654;8.932;2023-03-07T14:55:03;2.67;;;2.30;;
7173;SDS011;3628;48.654;8.932;2023-03-07T14:57:34;4.67;;;2.87;;
7173;SDS011;3628;48.654;8.932;2023-03-07T15:00:12;3.93;;;2.30;;
7173;SDS011;3628;48.654;8.932;2023-03-07T15:02:45;4.00;;;2.57;;
7173;SDS011;3628;48.654;8.932;2023-03-07T15:05:18;3.90;;;2.40;;
7173;SDS011;3628;48.654;8.932;2023-03-07T15:07:45;3.03;;;2.53;;
7173;SDS011;3628;48.654;8.932;2023-03-07T15:10:15;5.30;;;2.30;;
7173;SDS011;3628;48.654;8.932;2023-03-07T15:12:43;4.43;;;2.33;;
7173;SDS011;3628;48.654;8.932;2023-03-07T15:15:22;2.53;;;1.80;;
7173;SDS011;3628;48.654;8.932;2023-03-07T15:17:52;3.53;;;2.53;;
7173;SDS011;3628;48.654;8.932;2023-03-07T15:20:23;2.70;;;2.10;;
7173;SDS011;3628;48.654;8.932;2023-03-07T15:22:55;4.97;;;2.43;;
7173;SDS011;3628;48.654;8.932;2023-03-07T15:25:31;3.70;;;2.50;;
7173;SDS011;3628;48.654;8.932;2023-03-07T15:28:03;4.80;;;2.53;;
7173;SDS011;3628;48.654;8.932;2023-03-07T15:30:35;3.80;;;2.23;;
7173;SDS011;3628;48.654;8.932;2023-03-07T15:33:03;3.50;;;2.60;;
7173;SDS011;3628;48.654;8.932;2023-03-07T15:35:34;3.57;;;2.40;;
7173;SDS011;3628;48.654;8.932;2023-03-07T15:38:05;2.77;;;2.47;;
7173;SDS011;3628;48.654;8.932;2023-03-07T15:40:38;3.27;;;2.60;;
7173;SDS011;3628;48.654;8.932;2023-03-07T15:45:30;2.77;;;2.33;;
7173;SDS011;3628;48.654;8.932;2023-03-07T15:48:08;2.80;;;2.30;;
7173;SDS011;3628;48.654;8.932;2023-03-07T15:50:36;3.97;;;2.90;;
7173;SDS011;3628;48.654;8.932;2023-03-07T15:53:08;5.33;;;2.90;;
7173;SDS011;3628;48.654;8.932;2023-03-07T15:55:42;4.23;;;2.83;;
7173;SDS011;3628;48.654;8.932;2023-03-07T15:58:17;3.37;;;2.47;;
7173;SDS011;3628;48.654;8.932;2023-03-07T16:00:43;4.10;;;2.90;;
7173;SDS011;3628;48.654;8.932;2023-03-07T16:03:27;3.07;;;2.47;;
7173;SDS011;3628;48.654;8.932;2023-03-07T16:05:54;3.40;;;2.67;;
7173;SDS011;3628;48.654;8.932;2023-03-07T16:08:21;3.53;;;2.57;;
7173;SDS011;3628;48.654;8.932;2023-03-07T16:11:00;3.30;;;2.73;;
7173;SDS011;3628;48.654;8.932;2023-03-07T16:13:38;3.53;;;2.80;;
7173;SDS011;3628;48.654;8.932;2023-03-07T16:16:16;3.50;;;2.73;;
7173;SDS011;3628;48.654;8.932;2023-03-07T16:18:45;4.67;;;3.00;;
7173;SDS011;3628;48.654;8.932;2023-03-07T16:21:12;3.80;;;2.60;;
7173;SDS011;3628;48.654;8.932;2023-03-07T16:23:39;4.00;;;3.20;;
7173;SDS011;3628;48.654;8.932;2023-03-07T16:26:05;4.50;;;3.00;;
7173;SDS011;3628;48.654;8.932;2023-03-07T16:28:31;4.30;;;3.03;;
7173;SDS011;3628;48.654;8.932;2023-03-07T16:30:58;5.07;;;3.40;;
7173;SDS011;3628;48.654;8.932;2023-03-07T16:33:23;5.00;;;3.60;;
7173;SDS011;3628;48.654;8.932;2023-03-07T16:35:49;7.87;;;4.50;;
7173;SDS011;3628;48.654;8.932;2023-03-07T16:38:14;6.63;;;4.20;;
7173;SDS011;3628;48.654;8.932;2023-03-07T16:40:41;9.80;;;4.43;;
7173;SDS011;3628;48.654;8.932;2023-03-07T16:43:29;8.13;;;5.30;;
7173;SDS011;3628;48.654;8.932;2023-03-07T16:46:01;16.13;;;9.30;;
7173;SDS011;3628;48.654;8.932;2023-03-07T16:48:28;14.73;;;8.80;;
7173;SDS011;3628;48.654;8.932;2023-03-07T16:50:54;21.73;;;13.53;;
7173;SDS011;3628;48.654;8.932;2023-03-07T16:53:19;17.37;;;12.60;;
7173;SDS011;3628;48.654;8.932;2023-03-07T16:55:45;4.67;;;3.60;;
7173;SDS011;3628;48.654;8.932;2023-03-07T16:58:16;5.23;;;3.47;;
7173;SDS011;3628;48.654;8.932;2023-03-07T17:00:48;4.40;;;3.10;;
7173;SDS011;3628;48.654;8.932;2023-03-07T17:03:14;4.67;;;3.17;;
7173;SDS011;3628;48.654;8.932;2023-03-07T17:05:40;5.20;;;3.10;;
7173;SDS011;3628;48.654;8.932;2023-03-07T17:08:05;4.63;;;3.10;;
7173;SDS011;3628;48.654;8.932;2023-03-07T17:10:32;4.97;;;2.97;;
7173;SDS011;3628;48.654;8.932;2023-03-07T17:12:57;5.07;;;3.20;;
7173;SDS011;3628;48.654;8.932;2023-03-07T17:15:25;4.87;;;3.10;;
7173;SDS011;3628;48.654;8.932;2023-03-07T17:17:54;4.10;;;2.63;;
7173;SDS011;3628;48.654;8.932;2023-03-07T17:20:21;5.07;;;2.97;;
7173;SDS011;3628;48.654;8.932;2023-03-07T17:22:47;4.53;;;2.97;;
7173;SDS011;3628;48.654;8.932;2023-03-07T17:25:14;4.60;;;3.17;;
7173;SDS011;3628;48.654;8.932;2023-03-07T17:27:42;6.97;;;3.00;;
7173;SDS011;3628;48.654;8.932;2023-03-07T17:30:11;4.90;;;3.20;;
7173;SDS011;3628;48.654;8.932;2023-03-07T17:32:43;4.77;;;3.03;;